createdAt,value
2022-09-28T00:01:17.751Z,2.00
2022-09-28T00:03:46.356Z,2.20
2022-09-28T00:06:16.870Z,1.83
2022-09-28T00:08:45.379Z,2.40
2022-09-28T00:11:15.662Z,2.00
2022-09-28T00:13:46.309Z,1.63
2022-09-28T00:16:16.914Z,1.77
2022-09-28T00:18:45.706Z,2.47
2022-09-28T00:21:16.055Z,2.83
2022-09-28T00:23:58.895Z,1.70
2022-09-28T00:26:28.063Z,2.30
2022-09-28T00:28:59.706Z,1.73
2022-09-28T00:31:29.312Z,1.87
2022-09-28T00:33:57.834Z,2.17
2022-09-28T00:36:27.136Z,1.80
2022-09-28T00:38:56.450Z,1.40
2022-09-28T00:41:24.854Z,2.00
2022-09-28T00:43:53.208Z,2.47
2022-09-28T00:46:32.041Z,1.47
2022-09-28T00:49:04.226Z,1.80
2022-09-28T00:51:33.278Z,2.30
2022-09-28T00:54:04.562Z,1.97
2022-09-28T00:56:36.212Z,2.03
2022-09-28T00:59:05.626Z,1.93
2022-09-28T01:01:36.067Z,1.63
2022-09-28T01:04:04.993Z,1.80
2022-09-28T01:06:36.067Z,1.70
2022-09-28T01:09:06.934Z,1.98
2022-09-28T01:11:37.889Z,1.77
2022-09-28T01:14:09.906Z,1.50
2022-09-28T01:16:46.522Z,1.85
2022-09-28T01:19:45.182Z,1.53
2022-09-28T01:22:28.737Z,1.95
2022-09-28T01:25:07.700Z,1.63
2022-09-28T01:27:42.447Z,2.03
2022-09-28T01:30:13.526Z,1.83
2022-09-28T01:32:51.020Z,1.90
2022-09-28T01:35:26.461Z,1.43
2022-09-28T01:37:59.434Z,1.37
2022-09-28T01:40:30.034Z,1.70
2022-09-28T01:43:05.131Z,1.55
2022-09-28T01:45:38.431Z,2.27
2022-09-28T01:48:08.631Z,1.87
2022-09-28T01:50:40.779Z,1.85
2022-09-28T01:53:14.291Z,2.17
2022-09-28T01:55:49.111Z,1.77
2022-09-28T01:58:26.757Z,1.70
2022-09-28T02:01:00.479Z,1.70
2022-09-28T02:03:36.510Z,1.60
2022-09-28T02:06:09.048Z,1.80
2022-09-28T02:08:41.500Z,1.50
2022-09-28T02:11:14.396Z,2.07
2022-09-28T02:13:48.103Z,1.50
2022-09-28T02:16:22.681Z,1.90
2022-09-28T02:18:52.077Z,1.53
2022-09-28T02:21:27.033Z,1.97
2022-09-28T02:23:59.592Z,1.87
2022-09-28T02:26:32.887Z,1.87
2022-09-28T02:29:02.355Z,1.57
2022-09-28T02:31:30.557Z,1.77
2022-09-28T02:34:00.005Z,1.67
2022-09-28T02:36:29.827Z,1.80
2022-09-28T02:39:01.087Z,1.42
2022-09-28T02:41:47.417Z,1.67
2022-09-28T02:44:36.045Z,1.73
2022-09-28T02:47:16.006Z,2.00
2022-09-28T02:49:51.025Z,1.50
2022-09-28T02:52:34.990Z,1.70
2022-09-28T02:55:19.195Z,1.73
2022-09-28T02:57:58.235Z,1.70
2022-09-28T03:00:28.321Z,2.10
2022-09-28T03:03:03.330Z,1.80
2022-09-28T03:05:42.381Z,2.03
2022-09-28T03:08:20.015Z,2.03
2022-09-28T03:10:55.059Z,1.60
2022-09-28T03:13:24.072Z,2.10
2022-09-28T03:15:53.672Z,2.00
2022-09-28T03:18:22.016Z,1.80
2022-09-28T03:20:50.713Z,1.80
2022-09-28T03:23:25.860Z,1.40
2022-09-28T03:25:54.893Z,1.80
2022-09-28T03:28:23.302Z,2.40
2022-09-28T03:30:52.968Z,2.40
2022-09-28T03:33:21.500Z,1.80
2022-09-28T03:35:50.497Z,1.43
2022-09-28T03:38:19.549Z,1.90
2022-09-28T03:40:54.682Z,2.47
2022-09-28T03:43:23.440Z,1.80
2022-09-28T03:45:55.488Z,2.00
2022-09-28T03:48:29.875Z,2.10
2022-09-28T03:51:01.945Z,1.97
2022-09-28T03:53:30.703Z,1.43
2022-09-28T03:56:04.467Z,1.70
2022-09-28T03:58:33.459Z,1.70
2022-09-28T04:01:12.926Z,1.90
2022-09-28T04:03:42.793Z,1.80
2022-09-28T04:06:11.219Z,1.57
2022-09-28T04:08:39.777Z,1.97
2022-09-28T04:11:07.977Z,1.90
2022-09-28T04:13:37.137Z,2.43
2022-09-28T04:16:08.560Z,1.90
2022-09-28T04:18:37.429Z,1.80
2022-09-28T04:21:24.250Z,1.50
2022-09-28T04:23:59.495Z,2.30
2022-09-28T04:26:28.823Z,1.83
2022-09-28T04:29:15.536Z,2.03
2022-09-28T04:31:50.621Z,2.13
2022-09-28T04:34:21.826Z,2.10
2022-09-28T04:36:51.215Z,2.03
2022-09-28T04:39:20.082Z,3.20
2022-09-28T04:41:51.595Z,2.27
2022-09-28T04:44:20.151Z,1.63
2022-09-28T04:46:51.024Z,1.60
2022-09-28T04:49:31.016Z,1.70
2022-09-28T04:52:19.809Z,2.13
2022-09-28T04:54:50.261Z,1.98
2022-09-28T04:57:18.332Z,1.97
2022-09-28T04:59:48.436Z,1.60
2022-09-28T05:02:18.028Z,1.80
2022-09-28T05:05:07.383Z,2.27
2022-09-28T05:08:04.904Z,2.40
2022-09-28T05:10:33.028Z,1.70
2022-09-28T05:13:03.080Z,1.80
2022-09-28T05:15:31.285Z,2.33
2022-09-28T05:18:00.984Z,2.13
2022-09-28T05:20:51.968Z,2.40
2022-09-28T05:23:20.095Z,2.07
2022-09-28T05:25:48.211Z,2.23
2022-09-28T05:28:28.993Z,2.13
2022-09-28T05:31:32.762Z,2.10
2022-09-28T05:34:16.981Z,2.20
2022-09-28T05:36:46.042Z,1.95
2022-09-28T05:39:14.171Z,2.07
2022-09-28T05:41:42.371Z,2.00
2022-09-28T05:44:10.538Z,2.87
2022-09-28T05:46:38.620Z,2.17
2022-09-28T05:49:06.689Z,2.67
2022-09-28T05:51:36.156Z,2.20
2022-09-28T05:54:06.140Z,1.77
2022-09-28T05:56:37.198Z,2.63
2022-09-28T05:59:07.756Z,2.92
2022-09-28T06:01:35.897Z,2.57
2022-09-28T06:04:08.918Z,2.83
2022-09-28T06:06:39.182Z,2.43
2022-09-28T06:09:07.246Z,2.77
2022-09-28T06:11:48.379Z,2.45
2022-09-28T06:14:26.283Z,3.10
2022-09-28T06:16:54.512Z,2.27
2022-09-28T06:19:23.622Z,2.23
2022-09-28T06:22:08.818Z,2.53
2022-09-28T06:24:45.401Z,2.97
2022-09-28T06:27:13.446Z,2.47
2022-09-28T06:29:41.605Z,2.73
2022-09-28T06:32:09.745Z,2.30
2022-09-28T06:34:39.400Z,2.67
2022-09-28T06:37:08.865Z,2.43
2022-09-28T06:39:37.829Z,2.45
2022-09-28T06:42:07.078Z,2.83
2022-09-28T06:44:59.265Z,2.80
2022-09-28T06:47:44.560Z,3.00
2022-09-28T06:50:25.651Z,2.58
2022-09-28T06:53:11.620Z,2.17
2022-09-28T06:55:50.156Z,2.60
2022-09-28T06:58:20.957Z,2.80
2022-09-28T07:00:51.664Z,2.20
2022-09-28T07:03:21.649Z,2.70
2022-09-28T07:06:13.160Z,3.03
2022-09-28T07:09:26.610Z,2.73
2022-09-28T07:12:14.365Z,3.13
2022-09-28T07:14:58.289Z,3.30
2022-09-28T07:17:29.368Z,2.93
2022-09-28T07:20:08.868Z,2.97
2022-09-28T07:22:43.859Z,3.03
2022-09-28T07:25:19.250Z,3.80
2022-09-28T07:27:57.386Z,2.83
2022-09-28T07:30:51.390Z,2.60
2022-09-28T07:33:39.746Z,3.23
2022-09-28T07:36:23.800Z,3.47
2022-09-28T07:38:53.714Z,3.40
2022-09-28T07:41:32.340Z,3.27
2022-09-28T07:44:06.051Z,2.80
2022-09-28T07:46:36.936Z,3.70
2022-09-28T07:49:44.204Z,3.60
2022-09-28T07:52:16.627Z,4.37
2022-09-28T07:55:07.103Z,4.03
2022-09-28T07:58:01.065Z,4.30
2022-09-28T08:01:01.050Z,4.30
2022-09-28T08:03:29.923Z,3.90
2022-09-28T08:06:02.300Z,5.60
2022-09-28T08:08:31.079Z,5.03
2022-09-28T08:10:59.976Z,3.90
2022-09-28T08:14:03.892Z,3.70
2022-09-28T08:16:52.080Z,4.23
2022-09-28T08:19:49.746Z,3.70
2022-09-28T08:22:18.862Z,5.13
2022-09-28T08:24:48.195Z,4.17
2022-09-28T08:27:18.382Z,4.00
2022-09-28T08:29:47.952Z,3.55
2022-09-28T08:32:49.277Z,4.50
2022-09-28T08:35:35.652Z,4.40
2022-09-28T08:38:27.347Z,4.03
2022-09-28T08:41:21.487Z,3.97
2022-09-28T08:44:24.175Z,4.13
2022-09-28T08:47:38.381Z,3.80
2022-09-28T08:50:38.016Z,4.13
2022-09-28T08:53:32.439Z,3.60
2022-09-28T08:56:19.614Z,3.50
2022-09-28T08:58:51.852Z,3.78
2022-09-28T09:01:21.381Z,4.43
2022-09-28T09:03:52.439Z,3.53
2022-09-28T09:06:51.723Z,3.58
2022-09-28T09:09:40.250Z,3.40
2022-09-28T09:12:14.633Z,3.70
2022-09-28T09:15:18.313Z,4.35
2022-09-28T09:18:01.632Z,4.32
2022-09-28T09:20:49.436Z,4.38
2022-09-28T09:23:38.457Z,4.10
2022-09-28T09:26:21.658Z,3.80
2022-09-28T09:29:21.031Z,3.67
2022-09-28T09:32:10.382Z,3.33
2022-09-28T09:34:58.174Z,3.22
2022-09-28T09:38:16.858Z,3.90
2022-09-28T09:41:08.059Z,3.30
2022-09-28T09:44:21.027Z,3.30
2022-09-28T09:46:57.453Z,3.33
2022-09-28T09:49:41.268Z,3.90
2022-09-28T09:52:19.750Z,3.38
2022-09-28T09:54:52.452Z,2.45
2022-09-28T09:57:41.320Z,2.10
2022-09-28T10:00:29.941Z,2.35
2022-09-28T10:03:19.466Z,2.17
2022-09-28T10:05:53.793Z,2.20
2022-09-28T10:08:23.880Z,2.47
2022-09-28T10:10:57.701Z,2.35
2022-09-28T10:13:29.292Z,3.13
2022-09-28T10:16:00.975Z,1.65
2022-09-28T10:18:37.884Z,1.40
2022-09-28T10:21:25.495Z,1.70
2022-09-28T10:24:03.339Z,1.50
2022-09-28T10:26:38.551Z,1.65
2022-09-28T10:29:14.920Z,1.88
2022-09-28T10:31:45.511Z,1.60
2022-09-28T10:34:27.865Z,1.63
2022-09-28T10:37:00.606Z,2.28
2022-09-28T10:39:37.757Z,1.60
2022-09-28T10:42:10.519Z,2.80
2022-09-28T10:44:51.945Z,2.40
2022-09-28T10:47:31.366Z,2.00
2022-09-28T10:50:00.885Z,1.50
2022-09-28T10:52:39.782Z,2.10
2022-09-28T10:55:32.486Z,1.40
2022-09-28T10:58:28.203Z,1.17
2022-09-28T11:01:04.051Z,1.00
2022-09-28T11:03:33.329Z,1.85
2022-09-28T11:06:08.981Z,1.63
2022-09-28T11:08:43.817Z,1.00
2022-09-28T11:11:19.954Z,1.20
2022-09-28T11:13:57.524Z,1.25
2022-09-28T11:16:30.727Z,1.30
2022-09-28T11:19:05.978Z,1.50
2022-09-28T11:21:42.995Z,1.73
2022-09-28T11:24:21.542Z,1.80
2022-09-28T11:26:53.566Z,1.67
2022-09-28T11:29:42.684Z,1.50
2022-09-28T11:32:43.516Z,1.23
2022-09-28T11:35:24.056Z,1.40
2022-09-28T11:38:15.239Z,1.83
2022-09-28T11:41:24.400Z,1.60
2022-09-28T11:44:09.260Z,1.38
2022-09-28T11:46:51.721Z,1.40
2022-09-28T11:49:31.233Z,1.30
2022-09-28T11:52:12.828Z,1.60
2022-09-28T11:54:51.886Z,1.30
2022-09-28T11:57:31.629Z,2.10
2022-09-28T12:00:03.093Z,1.33
2022-09-28T12:02:40.716Z,0.95
2022-09-28T12:05:20.894Z,1.27
2022-09-28T12:07:54.771Z,1.10
2022-09-28T12:10:52.517Z,1.30
2022-09-28T12:13:31.108Z,1.25
2022-09-28T12:16:38.836Z,1.50
2022-09-28T12:18:57.508Z,1.75
2022-09-28T12:21:34.575Z,1.60
2022-09-28T12:24:07.709Z,1.60
2022-09-28T12:26:43.109Z,2.38
2022-09-28T12:29:15.294Z,1.40
2022-09-28T12:31:54.960Z,1.30
2022-09-28T12:34:24.429Z,1.98
2022-09-28T12:37:08.436Z,1.20
2022-09-28T12:39:57.879Z,1.17
2022-09-28T12:42:41.220Z,2.63
2022-09-28T12:45:24.670Z,1.42
2022-09-28T12:48:25.418Z,1.30
2022-09-28T12:51:05.526Z,1.50
2022-09-28T12:54:01.666Z,2.17
2022-09-28T12:56:39.587Z,2.33
2022-09-28T12:59:18.392Z,1.48
2022-09-28T13:02:33.095Z,1.95
2022-09-28T13:05:17.671Z,1.80
2022-09-28T13:07:58.321Z,1.33
2022-09-28T13:10:34.960Z,1.40
2022-09-28T13:13:26.879Z,1.67
2022-09-28T13:16:03.035Z,1.40
2022-09-28T13:18:37.214Z,1.20
2022-09-28T13:21:12.535Z,2.00
2022-09-28T13:23:44.557Z,2.50
2022-09-28T13:26:23.689Z,1.08
2022-09-28T13:28:55.234Z,1.40
2022-09-28T13:31:31.871Z,1.38
2022-09-28T13:34:03.362Z,1.38
2022-09-28T13:36:47.855Z,1.33
2022-09-28T13:39:37.640Z,1.08
2022-09-28T13:42:09.404Z,1.40
2022-09-28T13:44:54.151Z,2.13
2022-09-28T13:47:46.566Z,1.48
2022-09-28T13:50:28.758Z,0.98
2022-09-28T13:53:06.341Z,0.95
2022-09-28T13:55:48.508Z,1.45
2022-09-28T13:58:22.441Z,1.30
2022-09-28T14:00:54.791Z,1.00
2022-09-28T14:03:28.799Z,1.08
2022-09-28T14:06:27.447Z,1.00
2022-09-28T14:09:23.773Z,0.93
2022-09-28T14:11:58.661Z,1.27
2022-09-28T14:14:30.264Z,0.90
2022-09-28T14:17:35.879Z,1.50
2022-09-28T14:20:09.216Z,1.20
2022-09-28T14:22:47.774Z,1.42
2022-09-28T14:25:23.687Z,1.20
2022-09-28T14:28:30.276Z,1.10
2022-09-28T14:30:59.650Z,1.23
2022-09-28T14:33:31.339Z,1.20
2022-09-28T14:36:02.282Z,1.13
2022-09-28T14:41:31.521Z,1.40
2022-09-28T14:44:05.023Z,1.52
2022-09-28T14:46:43.778Z,1.40
2022-09-28T14:50:00.624Z,0.90
2022-09-28T14:52:46.365Z,0.88
2022-09-28T14:55:18.457Z,0.90
2022-09-28T14:57:53.463Z,1.10
2022-09-28T15:00:26.008Z,1.20
2022-09-28T15:03:10.097Z,1.10
2022-09-28T15:05:49.904Z,1.35
2022-09-28T15:08:36.641Z,1.20
2022-09-28T15:11:04.890Z,2.22
2022-09-28T15:13:33.145Z,1.38
2022-09-28T15:16:09.971Z,1.42
2022-09-28T15:19:01.470Z,1.50
2022-09-28T15:21:36.472Z,2.60
2022-09-28T15:24:24.323Z,1.52
2022-09-28T15:26:53.265Z,1.20
2022-09-28T15:29:23.388Z,1.35
2022-09-28T15:31:54.642Z,1.15
2022-09-28T15:34:48.569Z,1.38
2022-09-28T15:37:20.089Z,1.75
2022-09-28T15:39:48.415Z,2.13
2022-09-28T15:42:18.493Z,2.08
2022-09-28T15:45:26.839Z,1.52
2022-09-28T15:48:19.555Z,1.15
2022-09-28T15:51:01.615Z,1.38
2022-09-28T15:53:31.378Z,1.33
2022-09-28T15:56:10.177Z,1.60
2022-09-28T15:58:39.724Z,1.27
2022-09-28T16:01:38.115Z,1.20
2022-09-28T16:04:36.613Z,1.73
2022-09-28T16:07:29.578Z,0.88
2022-09-28T16:10:03.315Z,1.10
2022-09-28T16:12:42.812Z,1.23
2022-09-28T16:15:21.310Z,1.00
2022-09-28T16:17:55.092Z,1.00
2022-09-28T16:20:29.827Z,1.40
2022-09-28T16:23:05.823Z,1.10
2022-09-28T16:25:39.706Z,1.02
2022-09-28T16:31:04.794Z,1.27
2022-09-28T16:33:41.772Z,1.60
2022-09-28T16:36:15.966Z,1.83
2022-09-28T16:38:45.979Z,1.50
2022-09-28T16:41:14.922Z,1.47
2022-09-28T16:43:43.054Z,1.40
2022-09-28T16:46:26.730Z,1.40
2022-09-28T16:48:55.585Z,1.50
2022-09-28T16:51:25.436Z,1.50
2022-09-28T16:54:10.825Z,1.70
2022-09-28T16:56:39.250Z,1.20
2022-09-28T16:59:13.929Z,1.42
2022-09-28T17:01:43.942Z,2.10
2022-09-28T17:04:12.778Z,1.83
2022-09-28T17:06:43.559Z,2.00
2022-09-28T17:09:14.049Z,1.42
2022-09-28T17:11:42.735Z,1.67
2022-09-28T17:14:11.785Z,1.77
2022-09-28T17:17:06.598Z,2.00
2022-09-28T17:19:30.912Z,3.42
2022-09-28T17:22:00.500Z,3.08
2022-09-28T17:24:29.099Z,3.75
2022-09-28T17:26:57.371Z,2.50
2022-09-28T17:29:25.637Z,1.90
2022-09-28T17:31:54.448Z,1.77
2022-09-28T17:34:23.027Z,1.60
2022-09-28T17:36:51.549Z,1.58
2022-09-28T17:39:21.302Z,2.22
2022-09-28T17:41:49.451Z,3.08
2022-09-28T17:44:18.029Z,2.97
2022-09-28T17:46:49.181Z,2.30
2022-09-28T17:49:18.874Z,4.20
2022-09-28T17:51:47.522Z,2.63
2022-09-28T17:54:19.408Z,2.08
2022-09-28T17:56:49.185Z,2.25
2022-09-28T17:59:19.505Z,5.55
2022-09-28T18:01:48.374Z,5.47
2022-09-28T18:04:39.727Z,2.80
2022-09-28T18:07:05.485Z,2.78
2022-09-28T18:09:33.725Z,2.55
2022-09-28T18:12:06.446Z,3.50
2022-09-28T18:14:35.958Z,4.00
2022-09-28T18:17:04.475Z,5.25
2022-09-28T18:19:32.708Z,4.38
2022-09-28T18:22:01.565Z,3.80
2022-09-28T18:24:30.027Z,3.75
2022-09-28T18:26:58.129Z,4.25
2022-09-28T18:29:32.236Z,3.20
2022-09-28T18:32:01.687Z,4.15
2022-09-28T18:34:29.879Z,4.82
2022-09-28T18:36:57.948Z,5.07
2022-09-28T18:39:26.607Z,5.55
2022-09-28T18:41:54.741Z,4.30
2022-09-28T18:44:22.993Z,5.10
2022-09-28T18:46:52.495Z,5.72
2022-09-28T18:49:20.929Z,5.78
2022-09-28T18:51:49.508Z,6.38
2022-09-28T18:54:18.096Z,4.47
2022-09-28T18:56:46.456Z,4.35
2022-09-28T18:59:15.923Z,4.55
2022-09-28T19:01:44.301Z,5.17
2022-09-28T19:04:15.170Z,4.03
2022-09-28T19:06:44.792Z,4.75
2022-09-28T19:09:13.317Z,4.60
2022-09-28T19:11:41.536Z,5.07
2022-09-28T19:14:11.693Z,4.60
2022-09-28T19:16:40.145Z,4.80
2022-09-28T19:19:08.893Z,5.03
2022-09-28T19:21:38.561Z,5.37
2022-09-28T19:24:07.077Z,5.10
2022-09-28T19:26:35.500Z,5.53
2022-09-28T19:29:03.814Z,4.77
2022-09-28T19:31:32.648Z,4.97
2022-09-28T19:34:00.948Z,5.37
2022-09-28T19:36:29.797Z,5.80
2022-09-28T19:39:03.222Z,5.30
2022-09-28T19:41:44.448Z,5.10
2022-09-28T19:44:16.871Z,6.23
2022-09-28T19:46:45.439Z,6.70
2022-09-28T19:49:17.669Z,5.53
2022-09-28T19:52:08.499Z,5.47
2022-09-28T19:54:38.221Z,5.40
2022-09-28T19:57:07.969Z,5.97
2022-09-28T19:59:36.946Z,5.93
2022-09-28T20:02:06.556Z,7.63
2022-09-28T20:04:35.317Z,6.67
2022-09-28T20:07:04.440Z,7.13
2022-09-28T20:09:33.224Z,6.60
2022-09-28T20:12:03.103Z,6.27
2022-09-28T20:14:35.271Z,7.43
2022-09-28T20:17:06.374Z,7.23
2022-09-28T20:19:35.051Z,6.30
2022-09-28T20:22:03.555Z,6.73
2022-09-28T20:24:32.069Z,7.47
2022-09-28T20:27:01.458Z,8.37
2022-09-28T20:29:33.490Z,7.87
2022-09-28T20:32:03.934Z,7.37
2022-09-28T20:34:33.584Z,6.70
2022-09-28T20:37:01.927Z,7.67
2022-09-28T20:39:30.063Z,8.43
2022-09-28T20:42:03.269Z,8.30
2022-09-28T20:44:32.809Z,6.57
2022-09-28T20:47:01.714Z,8.20
2022-09-28T20:49:29.839Z,6.93
2022-09-28T20:51:57.844Z,6.83
2022-09-28T20:54:26.200Z,6.57
2022-09-28T20:56:54.299Z,7.07
2022-09-28T20:59:25.983Z,7.30
2022-09-28T21:01:55.665Z,6.03
2022-09-28T21:04:24.263Z,6.23
2022-09-28T21:06:53.216Z,7.40
2022-09-28T21:09:21.380Z,6.33
2022-09-28T21:11:49.483Z,6.83
2022-09-28T21:14:17.585Z,6.70
2022-09-28T21:16:45.729Z,7.73
2022-09-28T21:19:15.136Z,6.80
2022-09-28T21:21:43.321Z,7.93
2022-09-28T21:24:12.513Z,5.77
2022-09-28T21:26:40.666Z,6.40
2022-09-28T21:29:13.244Z,6.97
2022-09-28T21:31:43.152Z,6.03
2022-09-28T21:34:13.340Z,6.00
2022-09-28T21:36:43.710Z,6.57
2022-09-28T21:39:11.933Z,6.00
2022-09-28T21:41:40.537Z,5.93
2022-09-28T21:44:09.396Z,5.67
2022-09-28T21:46:38.897Z,6.17
2022-09-28T21:49:08.429Z,6.07
2022-09-28T21:51:38.073Z,6.07
2022-09-28T21:54:08.202Z,6.37
2022-09-28T21:56:36.283Z,6.90
2022-09-28T21:59:04.394Z,6.70
2022-09-28T22:01:33.616Z,6.53
2022-09-28T22:04:02.377Z,5.73
2022-09-28T22:06:30.589Z,6.10
2022-09-28T22:08:59.423Z,6.20
2022-09-28T22:11:29.882Z,5.50
2022-09-28T22:14:00.226Z,5.45
2022-09-28T22:16:30.624Z,5.90
2022-09-28T22:18:59.413Z,5.30
2022-09-28T22:21:31.942Z,5.23
2022-09-28T22:24:01.985Z,5.53
2022-09-28T22:26:32.795Z,5.37
2022-09-28T22:29:02.737Z,5.95
2022-09-28T22:31:49.596Z,5.10
2022-09-28T22:34:17.646Z,5.20
2022-09-28T22:36:46.788Z,5.23
2022-09-28T22:39:14.813Z,5.13
2022-09-28T22:41:44.240Z,5.50
2022-09-28T22:44:12.315Z,5.93
2022-09-28T22:46:40.461Z,5.90
2022-09-28T22:49:11.267Z,5.23
2022-09-28T22:51:40.065Z,6.20
2022-09-28T22:54:08.281Z,5.30
2022-09-28T22:56:36.398Z,4.70
2022-09-28T22:59:05.952Z,5.53
2022-09-28T23:01:35.525Z,6.40
2022-09-28T23:04:03.784Z,4.97
2022-09-28T23:06:33.107Z,4.60
2022-09-28T23:09:01.755Z,5.13
2022-09-28T23:11:31.118Z,4.33
2022-09-28T23:14:00.410Z,4.23
2022-09-28T23:16:30.291Z,4.77
2022-09-28T23:18:58.603Z,4.80
2022-09-28T23:21:27.980Z,5.20
2022-09-28T23:23:57.988Z,5.13
2022-09-28T23:26:28.069Z,5.07
2022-09-28T23:28:56.614Z,4.60
2022-09-28T23:31:26.797Z,5.60
2022-09-28T23:34:00.334Z,4.40
2022-09-28T23:36:29.343Z,5.20
2022-09-28T23:38:57.812Z,5.37
2022-09-28T23:41:26.039Z,4.20
2022-09-28T23:43:54.090Z,4.50
2022-09-28T23:46:22.320Z,4.60
2022-09-28T23:48:51.758Z,4.47
2022-09-28T23:51:21.239Z,4.97
2022-09-28T23:53:49.390Z,4.53
2022-09-28T23:56:17.509Z,5.00
2022-09-28T23:58:45.627Z,5.23
